Time;durP1;ratioP1;P1;durP2;ratioP2;P2;SDS_P1;SDS_P2;PMS_P1;PMS_P2;Temp;Humidity;BMP_temperature;BMP_pressure;BME280_temperature;BME280_humidity;BME280_pressure;Samples;Min_cycle;Max_cycle;Signal;HPM_P1;HPM_P2
2021/03/31 00:01:27;;;;;;;61.18;30.15;;;;;;;8.93;62.77;101443.66;2225394;80;30222;-69
2021/03/31 00:04:29;;;;;;;68.05;31.75;;;;;;;8.87;62.84;101441.13;2225838;80;31125;-69
2021/03/31 00:07:31;;;;;;;62.80;30.62;;;;;;;8.83;62.92;101434.56;2229553;78;33034;-70
2021/03/31 00:10:47;;;;;;;69.92;33.75;;;;;;;8.80;63.08;101436.39;2260362;78;28845;-69
2021/03/31 00:13:50;;;;;;;62.10;32.75;;;;;;;8.78;63.17;101430.64;2266378;78;27748;-69
2021/03/31 00:16:52;;;;;;;60.95;30.88;;;;;;;8.76;63.20;101425.34;2265705;78;28812;-69
2021/03/31 00:19:54;;;;;;;59.18;29.60;;;;;;;8.75;63.22;101424.92;2251479;78;31170;-68
2021/03/31 00:22:56;;;;;;;66.55;31.52;;;;;;;8.73;63.42;101425.88;2266002;78;33114;-69
2021/03/31 00:25:59;;;;;;;64.97;31.25;;;;;;;8.69;63.45;101420.19;2265922;78;28853;-68
2021/03/31 00:29:01;;;;;;;61.20;32.65;;;;;;;8.66;63.45;101419.34;2240727;78;27727;-68
2021/03/31 00:32:05;;;;;;;62.83;30.05;;;;;;;8.64;63.46;101422.97;2235982;77;29015;-68
2021/03/31 00:35:11;;;;;;;64.85;31.45;;;;;;;8.59;63.44;101429.77;2266446;78;32035;-68
2021/03/31 00:38:14;;;;;;;62.90;32.17;;;;;;;8.55;63.72;101424.50;2251685;78;33102;-69
2021/03/31 00:41:16;;;;;;;61.55;29.50;;;;;;;8.48;63.59;101422.44;2226052;80;29169;-69
2021/03/31 00:44:20;;;;;;;61.73;28.90;;;;;;;8.43;63.67;101418.98;2238101;78;27713;-69
2021/03/31 00:47:22;;;;;;;59.03;29.35;;;;;;;8.37;63.68;101419.97;2228346;78;29266;-68
2021/03/31 00:50:25;;;;;;;65.00;31.07;;;;;;;8.29;63.70;101413.46;2265609;78;32614;-68
2021/03/31 00:53:37;;;;;;;66.15;30.45;;;;;;;8.21;63.83;101414.97;2237544;78;34269;-68
2021/03/31 00:56:39;;;;;;;58.78;29.92;;;;;;;8.15;64.07;101407.55;2225668;79;29237;-68
2021/03/31 00:59:41;;;;;;;52.98;27.30;;;;;;;8.10;64.07;101409.46;2258932;78;27725;-68
2021/03/31 01:02:43;;;;;;;63.78;29.20;;;;;;;8.07;64.29;101403.72;2266286;78;28886;-69
2021/03/31 01:05:46;;;;;;;66.15;30.72;;;;;;;8.08;64.30;101405.94;2265761;78;31177;-68
2021/03/31 01:08:48;;;;;;;58.90;30.70;;;;;;;8.08;64.51;101405.47;2264298;78;33201;-67
2021/03/31 01:12:19;;;;;;;58.45;31.75;;;;;;;8.11;64.71;101397.41;2266410;78;29230;-68
2021/03/31 01:15:37;;;;;;;60.70;30.40;;;;;;;8.13;64.78;101398.25;2266324;78;27780;-68
2021/03/31 01:18:53;;;;;;;54.90;30.77;;;;;;;8.13;64.62;101401.36;2248098;78;28813;-68
2021/03/31 01:22:07;;;;;;;57.05;29.42;;;;;;;8.10;64.69;101398.31;2226100;78;31178;-67
2021/03/31 01:25:16;;;;;;;54.70;31.35;;;;;;;8.03;64.65;101399.34;2225735;79;33205;-67
2021/03/31 01:28:57;;;;;;;52.88;30.37;;;;;;;8.00;64.88;101389.63;2226657;78;29155;-67
2021/03/31 01:32:35;;;;;;;59.15;29.82;;;;;;;7.97;64.78;101393.69;2253550;77;27681;-67
2021/03/31 01:35:39;;;;;;;56.90;30.62;;;;;;;7.93;64.75;101401.80;2260180;78;28744;-67
2021/03/31 01:38:45;;;;;;;63.38;33.33;;;;;;;7.87;64.87;101404.14;2241165;78;31099;-67
2021/03/31 01:41:48;;;;;;;59.50;29.87;;;;;;;7.83;65.01;101401.11;2218508;78;33098;-67
2021/03/31 01:44:55;;;;;;;67.87;32.73;;;;;;;7.81;65.18;101396.25;2237524;78;28983;-68
2021/03/31 01:48:05;;;;;;;62.20;31.45;;;;;;;7.75;65.40;101382.59;2250427;78;27741;-67
2021/03/31 01:51:09;;;;;;;56.00;29.02;;;;;;;7.70;65.57;101384.02;2217240;80;28812;-67
2021/03/31 01:54:11;;;;;;;55.38;29.30;;;;;;;7.69;65.46;101382.73;2186541;80;32088;-67
2021/03/31 01:57:14;;;;;;;52.45;29.55;;;;;;;7.71;65.43;101379.55;2235777;78;33631;-68
2021/03/31 02:00:19;;;;;;;69.87;31.55;;;;;;;7.71;65.40;101382.22;2258685;78;29165;-67
2021/03/31 02:03:23;;;;;;;61.85;29.75;;;;;;;7.71;65.60;101378.22;2258759;78;27662;-68
2021/03/31 02:06:30;;;;;;;64.42;32.03;;;;;;;7.71;65.58;101366.22;2224807;78;28817;-68
2021/03/31 02:09:37;;;;;;;62.23;32.70;;;;;;;7.69;65.53;101371.59;2258693;78;31059;-68
2021/03/31 02:12:41;;;;;;;55.48;29.87;;;;;;;7.67;65.52;101372.55;2239582;78;33154;-69
2021/03/31 02:15:45;;;;;;;60.10;30.88;;;;;;;7.63;65.58;101367.70;2218633;80;29187;-68
2021/03/31 02:18:47;;;;;;;61.53;31.87;;;;;;;7.59;65.48;101376.70;2256350;78;27671;-69
2021/03/31 02:21:51;;;;;;;58.30;31.20;;;;;;;7.55;65.50;101372.33;2238229;78;28804;-67
2021/03/31 02:24:53;;;;;;;64.12;32.67;;;;;;;7.51;65.46;101371.95;2231103;78;31351;-67
2021/03/31 02:27:55;;;;;;;62.05;31.07;;;;;;;7.47;65.57;101371.58;2218695;80;33553;-68
2021/03/31 02:30:58;;;;;;;52.88;28.90;;;;;;;7.42;65.51;101370.34;2218678;80;29164;-68
2021/03/31 02:34:01;;;;;;;61.18;31.23;;;;;;;7.37;65.55;101369.11;2230313;78;27759;-67
2021/03/31 02:37:06;;;;;;;64.62;29.10;;;;;;;7.35;65.69;101364.26;2193909;80;29289;-68
2021/03/31 02:40:10;;;;;;;62.78;33.18;;;;;;;7.35;65.97;101367.39;2222656;80;30341;-69
2021/03/31 02:43:15;;;;;;;65.72;34.10;;;;;;;7.36;66.25;101373.16;2226020;78;33081;-67
2021/03/31 02:46:21;;;;;;;61.40;32.78;;;;;;;7.35;66.38;101366.06;2262034;78;34926;-68
2021/03/31 02:49:27;;;;;;;55.48;30.08;;;;;;;7.36;66.37;101371.81;2235678;78;27694;-67
2021/03/31 02:52:32;;;;;;;62.80;32.30;;;;;;;7.35;66.41;101364.26;2262520;78;28763;-68
2021/03/31 02:55:34;;;;;;;48.63;25.40;;;;;;;7.32;66.38;101358.98;2226891;78;32022;-67
2021/03/31 02:58:42;;;;;;;66.65;32.73;;;;;;;7.29;66.43;101363.03;2192486;80;34060;-68
2021/03/31 03:01:45;;;;;;;66.97;31.62;;;;;;;7.26;66.36;101362.64;2222417;80;28411;-68
2021/03/31 03:04:49;;;;;;;65.45;32.48;;;;;;;7.24;66.30;101368.45;2246918;78;27781;-68
2021/03/31 03:07:51;;;;;;;66.28;34.70;;;;;;;7.22;66.41;101364.93;2223089;78;28806;-68
2021/03/31 03:10:59;;;;;;;60.17;33.23;;;;;;;7.19;66.49;101356.13;2222318;80;31584;-69
2021/03/31 03:14:04;;;;;;;61.10;32.05;;;;;;;7.15;66.52;101359.30;2236205;78;33111;-69
2021/03/31 03:17:06;;;;;;;65.20;34.35;;;;;;;7.08;66.69;101357.21;2262778;78;29163;-68
2021/03/31 03:20:11;;;;;;;61.40;29.50;;;;;;;7.04;66.94;101352.84;2262848;78;27695;-68
2021/03/31 03:23:13;;;;;;;59.65;30.60;;;;;;;7.06;67.08;101352.36;2262823;78;28819;-67
2021/03/31 03:26:17;;;;;;;63.48;31.25;;;;;;;7.07;66.98;101356.78;2234745;78;31183;-67
2021/03/31 03:29:20;;;;;;;64.75;31.97;;;;;;;7.09;66.96;101357.64;2262107;78;33580;-68
2021/03/31 03:32:22;;;;;;;64.05;34.45;;;;;;;7.11;66.98;101349.17;2262304;78;30025;-69
2021/03/31 03:35:27;;;;;;;66.82;32.35;;;;;;;7.11;66.91;101343.84;2236981;78;27888;-69
2021/03/31 03:38:29;;;;;;;60.60;31.82;;;;;;;7.12;66.89;101340.70;2225996;80;28808;-68
2021/03/31 03:41:32;;;;;;;67.00;33.30;;;;;;;7.10;66.79;101343.41;2250293;78;31121;-67
2021/03/31 03:44:35;;;;;;;62.30;33.42;;;;;;;7.06;66.78;101340.38;2254422;78;33113;-68
2021/03/31 03:47:39;;;;;;;71.33;34.43;;;;;;;7.04;66.63;101342.61;2225937;80;30158;-67
2021/03/31 03:50:41;;;;;;;63.23;34.60;;;;;;;6.97;66.84;101340.52;2225930;80;27528;-67
2021/03/31 03:53:43;;;;;;;62.83;32.75;;;;;;;6.90;66.77;101338.41;2229523;78;28866;-68
2021/03/31 03:56:50;;;;;;;58.58;31.50;;;;;;;6.85;66.82;101337.64;2266245;78;32038;-67
2021/03/31 03:59:54;;;;;;;57.73;32.25;;;;;;;6.80;66.77;101334.17;2266548;78;33555;-67
2021/03/31 04:02:57;;;;;;;57.03;30.60;;;;;;;6.77;66.84;101335.55;2266641;78;30058;-67
2021/03/31 04:05:59;;;;;;;67.85;31.33;;;;;;;6.70;66.96;101337.44;2233018;78;27723;-67
2021/03/31 04:09:02;;;;;;;58.48;29.12;;;;;;;6.69;66.99;101338.34;2246510;78;28803;-67
2021/03/31 04:12:06;;;;;;;51.42;28.25;;;;;;;6.67;67.15;101337.05;2265872;78;31116;-68
2021/03/31 04:15:10;;;;;;;49.42;24.60;;;;;;;6.68;67.11;101337.91;2264111;78;33077;-68
2021/03/31 04:18:14;;;;;;;60.98;32.45;;;;;;;6.68;67.20;101341.91;2266396;78;29154;-67
2021/03/31 04:21:17;;;;;;;61.70;30.90;;;;;;;6.68;67.43;101342.80;2266632;78;27706;-67
2021/03/31 04:24:20;;;;;;;57.27;31.60;;;;;;;6.67;67.33;101345.03;2258325;78;30117;-67
2021/03/31 04:27:23;;;;;;;59.50;30.95;;;;;;;6.67;67.34;101349.03;2226095;78;32031;-67
2021/03/31 04:30:25;;;;;;;57.62;31.00;;;;;;;6.66;67.31;101349.03;2225492;80;33101;-68
2021/03/31 04:33:27;;;;;;;62.75;32.55;;;;;;;6.65;67.21;101349.94;2226209;80;29478;-67
2021/03/31 04:36:31;;;;;;;65.70;31.30;;;;;;;6.62;67.24;101350.88;2243536;78;28190;-67
2021/03/31 04:39:34;;;;;;;63.73;32.30;;;;;;;6.60;67.38;101340.70;2218758;80;29224;-67
2021/03/31 04:42:36;;;;;;;58.23;31.33;;;;;;;6.59;67.37;101342.07;2218541;80;31132;-68
2021/03/31 04:45:38;;;;;;;56.92;29.70;;;;;;;6.59;67.37;101340.27;2242254;78;33104;-67
2021/03/31 04:48:41;;;;;;;56.23;29.40;;;;;;;6.60;67.44;101342.50;2257768;78;29229;-70
2021/03/31 04:51:44;;;;;;;58.52;29.32;;;;;;;6.63;67.54;101335.77;2258992;78;27727;-67
2021/03/31 04:54:46;;;;;;;55.43;29.82;;;;;;;6.68;67.64;101337.48;2220880;78;28816;-67
2021/03/31 04:57:48;;;;;;;68.90;31.52;;;;;;;6.75;67.75;101336.92;2251772;78;32198;-66
2021/03/31 05:00:50;;;;;;;60.55;33.05;;;;;;;6.84;67.79;101342.54;2258768;78;33603;-67
2021/03/31 05:03:52;;;;;;;64.12;32.20;;;;;;;6.91;67.80;101345.97;2232652;78;29159;-68
2021/03/31 05:06:55;;;;;;;78.40;39.40;;;;;;;6.98;67.81;101344.50;2218656;80;27752;-66
2021/03/31 05:09:57;;;;;;;85.00;47.62;;;;;;;7.04;68.28;101343.95;2219169;78;28811;-66
2021/03/31 05:12:59;;;;;;;85.22;46.05;;;;;;;7.10;68.35;101339.41;2231671;78;31208;-67
2021/03/31 05:16:01;;;;;;;76.85;39.30;;;;;;;7.18;68.42;101340.61;2258421;78;34044;-66
2021/03/31 05:19:03;;;;;;;67.30;36.60;;;;;;;7.26;68.50;101343.98;2258938;78;29235;-66
2021/03/31 05:22:05;;;;;;;70.65;36.00;;;;;;;7.36;68.55;101344.69;2238445;78;27576;-66
2021/03/31 05:25:09;;;;;;;74.65;38.23;;;;;;;7.49;68.73;101344.00;2217635;80;28802;-67
2021/03/31 05:28:11;;;;;;;76.77;39.85;;;;;;;7.60;68.71;101335.33;2218555;78;31176;-67
2021/03/31 05:31:14;;;;;;;71.22;38.48;;;;;;;7.72;68.79;101338.20;2239112;78;33502;-67
2021/03/31 05:34:16;;;;;;;70.37;37.67;;;;;;;7.84;68.78;101337.06;2258432;78;29138;-66
2021/03/31 05:37:18;;;;;;;75.72;40.45;;;;;;;7.99;68.75;101334.50;2258527;78;27646;-67
2021/03/31 05:40:20;;;;;;;67.00;38.28;;;;;;;8.14;68.79;101327.05;2257380;78;28815;-67
2021/03/31 05:43:22;;;;;;;66.33;37.17;;;;;;;8.29;68.72;101327.17;2258802;78;32302;-67
2021/03/31 05:46:25;;;;;;;76.07;42.53;;;;;;;8.44;68.55;101334.81;2218778;80;34221;-67
2021/03/31 05:49:29;;;;;;;71.97;38.50;;;;;;;8.58;68.54;101334.52;2218730;80;29156;-67
2021/03/31 05:52:31;;;;;;;74.70;39.63;;;;;;;8.74;68.62;101333.66;2251511;78;27659;-66
2021/03/31 05:55:33;;;;;;;70.00;40.20;;;;;;;8.90;68.55;101340.84;2218650;78;28922;-67
2021/03/31 05:58:37;;;;;;;74.12;40.30;;;;;;;9.10;68.53;101330.09;2217619;80;31996;-66
2021/03/31 06:01:39;;;;;;;79.20;45.08;;;;;;;9.34;68.37;101335.23;2244136;78;33341;-68
2021/03/31 06:04:42;;;;;;;74.45;42.67;;;;;;;9.63;68.22;101341.98;2242026;78;29124;-67
2021/03/31 06:07:48;;;;;;;81.42;44.08;;;;;;;9.97;67.89;101341.87;2218783;80;27586;-66
2021/03/31 06:10:56;;;;;;;83.58;44.90;;;;;;;10.29;67.58;101340.00;2233271;78;28865;-68
2021/03/31 06:14:00;;;;;;;82.82;42.40;;;;;;;10.57;67.28;101335.59;2197473;80;31148;-66
2021/03/31 06:17:05;;;;;;;81.12;42.65;;;;;;;10.92;66.88;101330.84;2163723;81;33212;-68
2021/03/31 06:20:10;;;;;;;83.82;44.08;;;;;;;11.29;66.47;101332.20;2139434;81;29946;-67
2021/03/31 06:26:41;;;;;;;73.05;42.45;;;;;;;12.19;65.36;101319.92;2162616;81;28828;-68
2021/03/31 06:29:44;;;;;;;71.30;42.60;;;;;;;12.58;64.63;101326.83;2140635;83;31207;-67
2021/03/31 06:32:47;;;;;;;69.15;39.40;;;;;;;13.08;64.14;101322.05;2141088;81;33199;-67
2021/03/31 06:35:52;;;;;;;66.85;38.92;;;;;;;13.58;63.60;101317.19;2136671;82;30316;-68
2021/03/31 06:38:55;;;;;;;64.13;37.30;;;;;;;14.09;62.86;101309.44;2130168;83;27741;-68
2021/03/31 06:42:09;;;;;;;66.55;36.58;;;;;;;14.57;62.26;101301.22;2155540;82;29389;-69
2021/03/31 06:45:17;;;;;;;54.40;34.50;;;;;;;15.09;61.83;101299.98;2164549;82;30945;-66
2021/03/31 06:48:21;;;;;;;52.23;32.17;;;;;;;15.60;61.11;101296.79;2136322;82;33162;-65
2021/03/31 06:51:25;;;;;;;52.33;31.15;;;;;;;16.13;59.85;101298.45;2130637;82;29226;-67
2021/03/31 06:54:28;;;;;;;52.60;30.15;;;;;;;16.59;59.36;101293.54;2130060;83;27622;-67
2021/03/31 06:57:33;;;;;;;51.20;29.05;;;;;;;17.43;58.11;101293.48;2131888;82;28810;-67
2021/03/31 07:00:38;;;;;;;53.35;32.00;;;;;;;17.43;58.11;101293.48;2129951;83;31161;-68
2021/03/31 07:03:40;;;;;;;;;;;;;;;17.86;56.42;101291.23;2132334;83;33107;-67
2021/03/31 07:06:46;;;;;;;47.35;28.90;;;;;;;18.25;55.80;101291.46;2086659;82;29253;-66
2021/03/31 07:09:53;;;;;;;49.48;30.08;;;;;;;18.62;55.36;101288.97;2136601;82;27672;-67
2021/03/31 07:12:56;;;;;;;43.75;28.80;;;;;;;18.94;54.67;101288.16;2140142;82;29720;-67
2021/03/31 07:16:11;;;;;;;45.60;30.92;;;;;;;19.28;53.86;101284.91;2129540;83;31142;-70
2021/03/31 07:19:27;;;;;;;46.50;30.40;;;;;;;19.57;52.51;101284.70;2124963;82;27996;-70
2021/03/31 07:22:29;;;;;;;54.05;32.20;;;;;;;19.93;52.66;101278.95;2129190;83;29155;-70
2021/03/31 07:25:31;;;;;;;60.73;35.98;;;;;;;20.31;52.13;101281.16;2129632;83;27632;-68
2021/03/31 07:28:33;;;;;;;50.08;30.80;;;;;;;20.63;50.76;101273.75;2135432;82;29658;-69
2021/03/31 07:31:36;;;;;;;52.53;30.60;;;;;;;20.93;50.66;101269.16;2129839;83;32122;-69
2021/03/31 07:34:38;;;;;;;53.05;31.60;;;;;;;21.31;50.06;101272.59;2129611;83;33104;-69
2021/03/31 07:37:42;;;;;;;48.60;30.80;;;;;;;21.67;49.49;101272.49;2157716;81;29998;-70
2021/03/31 07:40:45;;;;;;;47.73;29.23;;;;;;;22.01;48.35;101271.94;2177965;81;27771;-67
2021/03/31 07:43:48;;;;;;;45.65;28.70;;;;;;;22.36;47.62;101265.02;2188524;81;28820;-67
2021/03/31 07:47:04;;;;;;;40.88;27.73;;;;;;;22.58;46.32;101259.52;2152302;81;31136;-70
2021/03/31 07:50:13;;;;;;;45.55;27.85;;;;;;;22.69;45.19;101259.97;2107725;83;29081;-68
2021/03/31 07:53:15;;;;;;;44.55;28.23;;;;;;;22.82;44.59;101261.63;2131081;83;29101;-68
2021/03/31 07:56:24;;;;;;;43.05;28.98;;;;;;;22.97;43.74;101253.98;2131107;83;28957;-69
2021/03/31 07:59:26;;;;;;;43.92;27.95;;;;;;;23.02;43.82;101257.16;2128916;83;28800;-69
2021/03/31 08:02:30;;;;;;;46.58;28.05;;;;;;;23.35;43.75;101249.26;2131143;83;31156;-67
2021/03/31 08:05:33;;;;;;;39.15;26.85;;;;;;;23.75;43.17;101248.02;2131135;83;33064;-68
2021/03/31 08:08:39;;;;;;;51.80;30.48;;;;;;;24.00;41.59;101246.67;2130900;83;29216;-68
2021/03/31 08:12:02;;;;;;;43.68;27.25;;;;;;;24.30;41.49;101245.36;2334040;76;27688;-69
2021/03/31 08:15:05;;;;;;;49.67;30.08;;;;;;;24.36;40.61;101247.53;2264730;78;27768;-68
2021/03/31 08:18:08;;;;;;;47.90;29.00;;;;;;;24.55;40.67;101248.03;2276481;77;29772;-68
2021/03/31 08:21:25;;;;;;;45.73;29.37;;;;;;;24.73;39.88;101238.62;2252285;78;31124;-69
2021/03/31 08:24:43;;;;;;;48.95;27.90;;;;;;;24.86;39.59;101239.17;2274821;77;33066;-67
2021/03/31 08:27:58;;;;;;;50.33;31.00;;;;;;;25.09;39.50;101231.95;2296394;77;28530;-68
2021/03/31 08:31:17;;;;;;;;;;;;;;;25.40;38.81;101227.58;2285448;78;27651;-68
2021/03/31 08:34:20;;;;;;;40.00;27.15;;;;;;;25.60;36.63;101224.78;2282543;78;29774;-68
2021/03/31 08:37:29;;;;;;;48.20;29.02;;;;;;;25.54;37.61;101222.15;2268829;77;31139;-69
2021/03/31 08:40:35;;;;;;;41.85;28.75;;;;;;;25.50;37.29;101215.75;2277762;77;33034;-69
2021/03/31 08:43:37;;;;;;;49.70;28.60;;;;;;;25.40;37.20;101208.91;2306057;77;28854;-69
2021/03/31 08:46:39;;;;;;;50.95;30.75;;;;;;;25.23;37.00;101205.09;2301676;77;27698;-69
2021/03/31 08:49:44;;;;;;;47.98;28.70;;;;;;;25.05;36.67;101211.36;2301084;77;29690;-69
2021/03/31 08:52:46;;;;;;;49.35;31.77;;;;;;;24.86;37.00;101204.91;2292633;77;31114;-68
2021/03/31 08:55:48;;;;;;;44.73;27.93;;;;;;;24.72;36.71;101198.53;2297938;76;34031;-71
2021/03/31 08:58:55;;;;;;;43.17;28.83;;;;;;;24.54;36.31;101199.72;2305120;77;28904;-67
2021/03/31 09:01:57;;;;;;;49.15;28.60;;;;;;;24.41;36.43;101194.53;2279281;76;27695;-69
2021/03/31 09:05:03;;;;;;;46.37;27.05;;;;;;;24.34;35.97;101193.41;2273338;75;28807;-67
2021/03/31 09:08:07;;;;;;;47.23;30.17;;;;;;;24.25;35.89;101191.03;2298830;76;31183;-66
2021/03/31 09:11:09;;;;;;;;;;;;;;;24.18;35.87;101191.23;2284319;77;33095;-67
2021/03/31 09:14:26;;;;;;;37.80;25.43;;;;;;;24.15;35.38;101186.06;2284562;75;29795;-74
2021/03/31 09:17:36;;;;;;;40.95;26.73;;;;;;;24.11;35.67;101184.98;2284803;77;27728;-73
2021/03/31 09:20:41;;;;;;;43.30;25.70;;;;;;;24.11;35.50;101183.61;2289094;77;28802;-70
2021/03/31 09:23:47;;;;;;;45.55;27.55;;;;;;;23.89;34.60;101182.46;2275679;75;31122;-69
2021/03/31 09:27:09;;;;;;;50.08;27.25;;;;;;;23.74;34.63;101172.45;2274076;75;33402;-68
2021/03/31 09:30:16;;;;;;;46.02;28.62;;;;;;;23.69;34.79;101174.21;2281176;76;28877;-67
2021/03/31 09:33:32;;;;;;;44.75;24.52;;;;;;;23.64;34.89;101166.44;2277872;76;27602;-68
2021/03/31 09:36:37;;;;;;;37.78;24.65;;;;;;;23.55;34.27;101168.66;2291726;75;28814;-68
2021/03/31 09:39:59;;;;;;;39.63;24.10;;;;;;;23.48;34.84;101166.11;2290217;75;31128;-68
2021/03/31 09:43:05;;;;;;;38.77;24.60;;;;;;;23.45;34.46;101165.01;2290532;76;33079;-70
2021/03/31 09:46:08;;;;;;;35.52;24.45;;;;;;;23.43;34.48;101167.02;2214323;78;29301;-67
2021/03/31 09:49:11;;;;;;;33.10;19.60;;;;;;;23.33;34.15;101165.64;2230270;78;27689;-66
2021/03/31 09:52:15;;;;;;;36.68;22.95;;;;;;;23.29;34.62;101158.72;2198060;80;28811;-66
2021/03/31 09:55:17;;;;;;;35.17;20.62;;;;;;;23.25;33.65;101159.98;2231009;78;31205;-66
2021/03/31 09:58:25;;;;;;;37.78;19.17;;;;;;;23.20;33.78;101156.27;2201492;79;33110;-67
2021/03/31 10:01:28;;;;;;;31.62;19.48;;;;;;;23.23;33.82;101159.25;2174793;80;28862;-68
2021/03/31 10:04:35;;;;;;;28.12;18.90;;;;;;;23.25;34.23;101159.47;2229869;78;27628;-67
2021/03/31 10:07:38;;;;;;;34.00;20.62;;;;;;;23.27;34.04;101156.09;2227049;77;28813;-66
2021/03/31 10:10:59;;;;;;;34.58;22.65;;;;;;;23.30;34.14;101146.77;2217674;78;31147;-66
2021/03/31 10:14:05;;;;;;;38.55;23.02;;;;;;;23.30;33.77;101148.14;2191228;78;33107;-67
2021/03/31 10:17:09;;;;;;;32.15;20.92;;;;;;;23.31;33.84;101138.94;2224821;79;30086;-66
2021/03/31 10:20:17;;;;;;;;;;;;;;;23.33;33.79;101134.20;2203720;80;28179;-66
2021/03/31 10:23:41;;;;;;;37.25;22.52;;;;;;;23.29;33.62;101138.20;2201521;78;29766;-68
2021/03/31 10:26:57;;;;;;;30.52;19.92;;;;;;;23.21;33.34;101123.35;2213823;79;27734;-68
2021/03/31 10:30:01;;;;;;;36.73;22.35;;;;;;;23.18;33.56;101130.94;2203159;80;33970;-67
2021/03/31 10:33:03;;;;;;;36.03;21.12;;;;;;;23.19;33.36;101124.47;2188284;80;28884;-68
2021/03/31 10:36:06;;;;;;;38.17;24.12;;;;;;;23.15;33.23;101119.79;2151898;80;27966;-68
2021/03/31 10:39:48;;;;;;;34.58;21.33;;;;;;;23.13;33.32;101117.70;2188224;78;28812;-65
2021/03/31 10:49:45;;;;;;;33.45;21.27;;;;;;;23.04;32.67;101102.11;2233260;77;29279;-66
2021/03/31 10:52:49;;;;;;;36.70;21.90;;;;;;;23.02;32.50;101100.89;2222656;77;27576;-66
2021/03/31 10:55:52;;;;;;;32.90;22.20;;;;;;;22.98;32.57;101096.70;2235786;77;28791;-66
2021/03/31 10:58:55;;;;;;;39.85;21.68;;;;;;;23.00;32.89;101099.31;2235863;77;31127;-66
2021/03/31 11:01:58;;;;;;;32.08;19.50;;;;;;;22.99;32.28;101094.84;2240531;77;33102;-65
2021/03/31 11:05:01;;;;;;;36.45;18.90;;;;;;;22.99;32.74;101092.11;2233296;77;28861;-64
2021/03/31 11:08:03;;;;;;;32.75;19.55;;;;;;;23.03;33.05;101084.86;2197073;80;27812;-63
2021/03/31 11:11:09;;;;;;;33.60;20.60;;;;;;;23.08;32.37;101083.59;2204510;78;29267;-64
2021/03/31 11:14:10;;;;;;;30.57;20.60;;;;;;;23.04;32.54;101072.92;2215613;79;31196;-64
2021/03/31 11:20:43;;;;;;;32.88;22.50;;;;;;;22.96;31.92;101066.42;2258690;77;27740;-64
2021/03/31 11:26:58;;;;;;;34.95;22.87;;;;;;;22.97;32.37;101064.91;2228154;79;29007;-65
2021/03/31 11:30:03;;;;;;;37.42;22.70;;;;;;;22.95;31.82;101065.55;2227784;79;31122;-64
2021/03/31 11:33:05;;;;;;;40.98;25.23;;;;;;;22.92;32.33;101054.88;2227774;79;33103;-65
2021/03/31 11:36:07;;;;;;;37.48;22.67;;;;;;;22.88;32.38;101046.63;2195446;79;27747;-64
2021/03/31 11:39:10;;;;;;;38.95;23.90;;;;;;;22.86;32.31;101049.98;2228780;78;27641;-64
2021/03/31 11:42:13;;;;;;;35.48;23.00;;;;;;;22.83;32.57;101047.05;2213249;79;28827;-65
2021/03/31 11:45:15;;;;;;;42.93;22.90;;;;;;;22.81;32.76;101042.22;2157379;81;31147;-64
2021/03/31 11:48:18;;;;;;;32.13;20.10;;;;;;;22.81;33.04;101045.44;2189581;79;33957;-65
2021/03/31 11:51:21;;;;;;;35.33;21.30;;;;;;;22.81;32.77;101031.77;2189507;81;27635;-65
2021/03/31 11:54:23;;;;;;;32.45;21.02;;;;;;;22.81;32.88;101024.94;2199023;79;27618;-65
2021/03/31 11:57:25;;;;;;;38.25;21.68;;;;;;;22.81;32.56;101022.21;2219182;80;29752;-65
2021/03/31 12:00:27;;;;;;;38.48;20.92;;;;;;;22.78;32.38;101019.75;2218847;80;31148;-65
2021/03/31 12:03:30;;;;;;;30.23;18.27;;;;;;;22.77;32.70;101014.80;2219449;80;34563;-65
2021/03/31 12:06:33;;;;;;;33.53;18.95;;;;;;;22.79;32.26;101013.28;2219629;80;28864;-64
2021/03/31 12:09:41;;;;;;;29.00;19.67;;;;;;;22.79;32.10;101010.55;2219586;80;27773;-64
2021/03/31 12:12:45;;;;;;;35.03;21.68;;;;;;;22.76;31.69;101002.99;2226006;79;29351;-65
2021/03/31 12:15:47;;;;;;;39.55;22.00;;;;;;;22.69;31.46;101000.47;2222711;79;32037;-64
2021/03/31 12:18:53;;;;;;;34.58;21.65;;;;;;;22.65;31.50;100996.28;2222892;79;33119;-64
2021/03/31 12:21:57;;;;;;;33.40;21.23;;;;;;;22.60;31.48;100995.34;2222285;80;29459;-65
2021/03/31 12:24:59;;;;;;;29.72;18.98;;;;;;;22.57;31.75;100986.05;2214971;79;27705;-65
2021/03/31 12:28:02;;;;;;;32.67;19.90;;;;;;;22.57;31.65;100983.31;2189675;81;28883;-64
2021/03/31 12:31:07;;;;;;;30.40;19.35;;;;;;;22.57;31.84;100979.22;2188999;81;31019;-63
2021/03/31 12:34:10;;;;;;;;;;;;;;;22.63;31.97;100979.68;2191396;81;34043;-65
2021/03/31 12:37:13;;;;;;;30.92;18.87;;;;;;;22.66;31.92;100966.60;2188862;80;28836;-64
2021/03/31 12:40:16;;;;;;;32.10;20.60;;;;;;;22.67;31.87;100960.14;2188867;79;27593;-63
2021/03/31 12:43:21;;;;;;;30.68;19.95;;;;;;;22.70;31.70;100961.72;2188707;80;28810;-64
2021/03/31 12:46:24;;;;;;;32.15;19.67;;;;;;;22.69;31.44;100953.16;2188834;80;32103;-64
2021/03/31 12:49:26;;;;;;;32.13;20.17;;;;;;;22.63;31.17;100949.13;2187981;81;33089;-65
2021/03/31 12:52:42;;;;;;;30.17;18.17;;;;;;;22.65;31.74;100947.64;2188873;81;29898;-65
2021/03/31 12:55:42;;;;;;;28.42;19.57;;;;;;;22.68;31.82;100941.87;2209518;79;27773;-64
2021/03/31 12:58:46;;;;;;;29.80;19.70;;;;;;;22.66;31.25;100935.19;2218131;80;29708;-65
2021/03/31 13:01:48;;;;;;;32.40;20.33;;;;;;;22.63;31.57;100932.73;2218964;80;31226;-65
2021/03/31 13:04:52;;;;;;;34.05;19.62;;;;;;;22.59;31.60;100920.36;2222709;79;34017;-64
2021/03/31 13:07:54;;;;;;;31.57;21.00;;;;;;;22.62;31.33;100924.17;2220239;80;28854;-65
2021/03/31 13:10:57;;;;;;;29.00;17.55;;;;;;;22.59;31.05;100908.06;2234931;78;27717;-65
2021/03/31 13:33:37;;;;;;;25.23;14.47;;;;;;;22.56;30.28;100891.47;2210016;79;33560;-65
2021/03/31 13:36:45;;;;;;;23.12;14.05;;;;;;;22.51;30.53;100888.80;2209897;80;28544;-64
2021/03/31 13:39:52;;;;;;;25.68;12.33;;;;;;;22.49;29.95;100879.88;2209777;80;27892;-65
2021/03/31 13:42:54;;;;;;;20.40;12.10;;;;;;;22.45;29.99;100878.79;2210315;80;28822;-64
2021/03/31 13:45:57;;;;;;;20.90;12.58;;;;;;;22.43;30.37;100879.42;2210131;79;33457;-63
2021/03/31 13:49:12;;;;;;;25.15;12.80;;;;;;;22.44;30.45;100875.70;2233357;79;33118;-64
2021/03/31 13:55:25;;;;;;;23.05;13.35;;;;;;;22.47;30.25;100866.38;2250277;79;28157;-64
2021/03/31 13:58:26;;;;;;;19.57;11.00;;;;;;;22.51;29.64;100854.67;2249899;79;28804;-65
2021/03/31 14:01:28;;;;;;;16.00;9.70;;;;;;;22.53;29.66;100847.20;2249984;79;32355;-64
2021/03/31 14:04:30;;;;;;;15.60;8.58;;;;;;;22.55;29.11;100839.22;2234415;79;31940;-64
2021/03/31 14:07:32;;;;;;;12.15;7.58;;;;;;;22.56;29.01;100839.58;2210233;79;28859;-64
2021/03/31 14:10:35;;;;;;;18.27;9.78;;;;;;;22.62;28.61;100831.33;2210246;80;27637;-64
2021/03/31 14:13:37;;;;;;;11.80;7.50;;;;;;;22.66;28.77;100826.46;2247866;77;29707;-64
2021/03/31 14:16:43;;;;;;;14.07;7.58;;;;;;;22.71;28.34;100825.03;2253244;79;31124;-63
2021/03/31 14:19:52;;;;;;;12.05;7.97;;;;;;;22.74;28.40;100813.81;2253920;77;35444;-63
2021/03/31 14:22:49;;;;;;;;;;;;;;;22.74;28.35;100819.77;2255527;79;28831;-64
2021/03/31 14:25:51;;;;;;;14.53;8.48;;;;;;;22.70;28.39;100811.00;2253658;79;27705;-64
2021/03/31 14:28:53;;;;;;;14.70;8.20;;;;;;;22.66;28.31;100804.61;2253824;79;28800;-64
2021/03/31 14:31:55;;;;;;;25.82;17.87;;;;;;;22.60;28.45;100802.80;2252340;79;31132;-63
2021/03/31 14:34:58;;;;;;;28.62;14.25;;;;;;;22.61;28.77;100801.80;2252991;79;33720;-64
2021/03/31 14:38:00;;;;;;;16.35;10.28;;;;;;;22.61;28.15;100799.06;2253196;79;28880;-64
2021/03/31 14:41:03;;;;;;;18.00;8.68;;;;;;;22.59;28.40;100790.64;2253180;79;28234;-63
2021/03/31 14:44:05;;;;;;;12.35;7.50;;;;;;;22.63;28.40;100789.87;2252910;79;28804;-62
2021/03/31 14:47:08;;;;;;;14.90;8.08;;;;;;;22.65;28.32;100790.59;2252222;79;31249;-63